Windsor, Ohio
Current Conditions -  °F | °C
As of 1:53 PM on Saturday 25 Oct 2014 (Local Time) from KHZY Reporting Station
Overcast Overcast  
Wind Chill: 65°   Ceiling: 3600
Heat Index: 65°   Visibility: 10mi
Dew Point: 51°   Wind: 21mph
Humidity: 61%   Direction: 290°WNW
Pressure: 29.77"   Gusts: 26mph
Location:  41.53°N, 80.93°W
Report Text: KHZY 251753Z AUTO 29018G23KT 10SM OVC036 18/11 A2977 RMK AO2 SLP078 T01830106 10194 20094 56026
Loading
Personal Weather Stations






























Interactive Weather Map
Tropical Storm Tracking
New forecast layout! Learn more

10-Day Weather Forecast

Advertisements
Track Severe Weather on mobile